createdAt,value
2024-03-13T00:02:08.022Z,10.70
2024-03-13T00:04:35.656Z,18.50
2024-03-13T00:07:03.276Z,25.60
2024-03-13T00:09:30.815Z,16.80
2024-03-13T00:11:58.297Z,12.40
2024-03-13T00:14:25.951Z,8.70
2024-03-13T00:16:53.421Z,8.70
2024-03-13T00:19:20.985Z,13.30
2024-03-13T00:21:48.598Z,13.40
2024-03-13T00:24:16.180Z,10.50
2024-03-13T00:26:43.711Z,11.40
2024-03-13T00:29:11.225Z,12.20
2024-03-13T00:31:38.811Z,34.60
2024-03-13T00:34:06.401Z,15.10
2024-03-13T00:36:33.933Z,64.30
2024-03-13T00:39:01.543Z,18.80
2024-03-13T00:41:29.263Z,18.20
2024-03-13T00:43:56.779Z,27.30
2024-03-13T00:46:24.502Z,16.40
2024-03-13T00:48:52.612Z,12.50
2024-03-13T00:51:20.139Z,15.10
2024-03-13T00:53:47.734Z,15.90
2024-03-13T00:56:15.250Z,20.80
2024-03-13T00:58:42.736Z,16.40
2024-03-13T01:01:10.500Z,17.40
2024-03-13T01:03:38.047Z,17.30
2024-03-13T01:06:05.574Z,11.50
2024-03-13T01:08:33.189Z,14.10
2024-03-13T01:11:00.801Z,11.30
2024-03-13T01:13:28.433Z,17.70
2024-03-13T01:15:56.141Z,12.80
2024-03-13T01:18:23.734Z,13.10
2024-03-13T01:20:51.382Z,35.90
2024-03-13T01:23:18.951Z,22.20
2024-03-13T01:25:46.467Z,17.40
2024-03-13T01:28:14.086Z,16.80
2024-03-13T01:30:44.692Z,16.70
2024-03-13T01:33:12.546Z,15.00
2024-03-13T01:35:40.057Z,19.00
2024-03-13T01:38:07.626Z,17.50
2024-03-13T01:40:35.121Z,14.50
2024-03-13T01:43:03.246Z,15.00
2024-03-13T01:45:30.851Z,17.70
2024-03-13T01:47:58.437Z,19.30
2024-03-13T01:50:25.962Z,18.80
2024-03-13T01:52:53.462Z,17.30
2024-03-13T01:55:21.117Z,14.70
2024-03-13T01:57:48.658Z,26.90
2024-03-13T02:00:16.218Z,16.90
2024-03-13T02:02:43.747Z,23.90
2024-03-13T02:05:11.250Z,18.40
2024-03-13T02:07:38.874Z,19.60
2024-03-13T02:10:06.401Z,11.40
2024-03-13T02:12:33.967Z,13.10
2024-03-13T02:15:01.531Z,15.10
2024-03-13T02:17:29.165Z,15.60
2024-03-13T02:19:56.695Z,19.80
2024-03-13T02:22:24.750Z,21.00
2024-03-13T02:24:52.427Z,15.00
2024-03-13T02:27:19.968Z,18.70
2024-03-13T02:29:47.471Z,20.90
2024-03-13T02:32:15.010Z,15.60
2024-03-13T02:34:42.598Z,23.20
2024-03-13T02:37:10.110Z,19.40
2024-03-13T02:39:37.984Z,22.70
2024-03-13T02:42:05.514Z,13.80
2024-03-13T02:44:33.044Z,18.90
2024-03-13T02:47:00.599Z,21.60
2024-03-13T02:49:28.175Z,19.30
2024-03-13T02:51:56.128Z,16.30
2024-03-13T02:54:23.669Z,26.40
2024-03-13T02:56:51.209Z,19.10
2024-03-13T02:59:18.788Z,24.90
2024-03-13T03:01:46.500Z,22.50
2024-03-13T03:04:14.167Z,15.10
2024-03-13T03:06:41.751Z,24.00
2024-03-13T03:09:09.302Z,22.90
2024-03-13T03:11:36.826Z,22.80
2024-03-13T03:14:04.463Z,25.40
2024-03-13T03:16:32.023Z,25.90
2024-03-13T03:18:59.570Z,25.20
2024-03-13T03:21:27.141Z,23.00
2024-03-13T03:23:54.669Z,32.80
2024-03-13T03:26:22.228Z,27.80
2024-03-13T03:28:49.799Z,25.10
2024-03-13T03:31:17.412Z,26.50
2024-03-13T03:33:45.011Z,29.30
2024-03-13T03:36:12.511Z,28.70
2024-03-13T03:38:40.041Z,24.10
2024-03-13T03:41:07.524Z,29.90
2024-03-13T03:43:35.036Z,33.40
2024-03-13T03:46:02.619Z,28.60
2024-03-13T03:48:30.536Z,30.80
2024-03-13T03:50:58.041Z,32.90
2024-03-13T03:53:25.610Z,26.80
2024-03-13T03:55:53.085Z,26.80
2024-03-13T03:58:20.639Z,26.80
2024-03-13T04:00:48.329Z,32.70
2024-03-13T04:03:15.873Z,32.80
2024-03-13T04:05:43.394Z,30.80
2024-03-13T04:08:11.462Z,35.30
2024-03-13T04:10:39.020Z,27.70
2024-03-13T04:13:06.648Z,29.50
2024-03-13T04:15:34.188Z,29.40
2024-03-13T04:18:01.790Z,29.70
2024-03-13T04:20:29.560Z,31.20
2024-03-13T04:22:57.053Z,33.40
2024-03-13T04:25:24.644Z,35.20
2024-03-13T04:27:52.304Z,31.00
2024-03-13T04:30:19.780Z,32.10
2024-03-13T04:32:47.261Z,36.30
2024-03-13T04:35:14.915Z,33.80
2024-03-13T04:37:42.405Z,34.40
2024-03-13T04:40:10.373Z,24.20
2024-03-13T04:42:38.025Z,38.10
2024-03-13T04:45:05.603Z,29.80
2024-03-13T04:47:33.173Z,28.50
2024-03-13T04:50:00.793Z,34.80
2024-03-13T04:52:28.838Z,30.00
2024-03-13T04:54:56.405Z,36.40
2024-03-13T04:57:24.139Z,27.00
2024-03-13T04:59:51.670Z,30.30
2024-03-13T05:02:19.232Z,39.70
2024-03-13T05:04:46.729Z,38.40
2024-03-13T05:07:14.270Z,30.70
2024-03-13T05:09:41.897Z,30.70
2024-03-13T05:12:09.439Z,31.90
2024-03-13T05:14:37.049Z,32.70
2024-03-13T05:17:04.626Z,29.70
2024-03-13T05:19:32.130Z,33.20
2024-03-13T05:21:59.741Z,36.20
2024-03-13T05:24:27.300Z,41.90
2024-03-13T05:26:54.881Z,36.90
2024-03-13T05:29:22.384Z,34.00
2024-03-13T05:31:49.946Z,39.30
2024-03-13T05:34:17.523Z,39.60
2024-03-13T05:36:45.529Z,39.30
2024-03-13T05:39:13.083Z,44.70
2024-03-13T05:41:40.611Z,39.60
2024-03-13T05:44:08.557Z,40.20
2024-03-13T05:46:36.145Z,41.20
2024-03-13T05:49:03.958Z,44.80
2024-03-13T05:51:31.504Z,42.90
2024-03-13T05:53:59.078Z,43.30
2024-03-13T05:56:26.585Z,44.30
2024-03-13T05:58:54.076Z,55.90
2024-03-13T06:01:21.608Z,45.30
2024-03-13T06:03:49.234Z,41.60
2024-03-13T06:06:16.791Z,48.20
2024-03-13T06:08:44.731Z,47.60
2024-03-13T06:11:12.330Z,41.20
2024-03-13T06:13:40.124Z,42.40
2024-03-13T06:16:07.712Z,39.80
2024-03-13T06:18:35.421Z,35.90
2024-03-13T06:21:02.899Z,45.30
2024-03-13T06:23:30.379Z,42.60
2024-03-13T06:25:57.923Z,26.90
2024-03-13T06:28:25.515Z,30.30
2024-03-13T06:30:53.404Z,46.30
2024-03-13T06:33:21.090Z,42.70
2024-03-13T06:35:48.667Z,48.60
2024-03-13T06:38:16.213Z,55.40
2024-03-13T06:40:44.019Z,43.50
2024-03-13T06:43:11.686Z,35.40
2024-03-13T06:45:40.449Z,44.50
2024-03-13T06:48:08.297Z,44.60
2024-03-13T06:50:36.349Z,31.50
2024-03-13T06:53:04.186Z,40.60
2024-03-13T06:55:31.885Z,42.60
2024-03-13T06:57:59.604Z,43.40
2024-03-13T07:00:27.214Z,46.30
2024-03-13T07:02:54.715Z,37.90
2024-03-13T07:05:22.433Z,36.80
2024-03-13T07:07:49.969Z,44.70
2024-03-13T07:10:17.598Z,36.60
2024-03-13T07:12:45.201Z,41.80
2024-03-13T07:15:12.707Z,46.60
2024-03-13T07:17:40.365Z,37.70
2024-03-13T07:20:07.906Z,40.30
2024-03-13T07:22:35.586Z,42.60
2024-03-13T07:25:03.256Z,37.00
2024-03-13T07:27:30.846Z,48.00
2024-03-13T07:29:58.373Z,39.50
2024-03-13T07:32:25.874Z,41.90
2024-03-13T07:34:53.510Z,44.70
2024-03-13T07:37:21.216Z,40.60
2024-03-13T07:39:48.778Z,49.90
2024-03-13T07:42:16.339Z,47.70
2024-03-13T07:44:43.890Z,46.90
2024-03-13T07:47:11.542Z,34.70
2024-03-13T07:49:39.081Z,55.10
2024-03-13T07:52:06.671Z,60.70
2024-03-13T07:54:34.228Z,46.50
2024-03-13T07:57:01.731Z,54.70
2024-03-13T07:59:29.305Z,44.10
2024-03-13T08:01:57.278Z,57.10
2024-03-13T08:04:24.906Z,54.80
2024-03-13T09:07:29.184Z,53.00
2024-03-13T09:09:56.753Z,37.30
2024-03-13T09:12:24.393Z,58.20
2024-03-13T09:14:51.973Z,43.30
2024-03-13T09:17:19.500Z,50.40
2024-03-13T09:19:47.129Z,49.10
2024-03-13T09:22:14.629Z,49.10
2024-03-13T09:24:42.161Z,49.70
2024-03-13T09:27:10.067Z,44.60
2024-03-13T09:29:37.720Z,60.20
2024-03-13T09:32:05.387Z,68.80
2024-03-13T09:34:33.046Z,60.70
2024-03-13T09:37:00.615Z,62.20
2024-03-13T09:39:28.179Z,41.40
2024-03-13T09:41:55.806Z,55.60
2024-03-13T09:44:23.324Z,57.20
2024-03-13T09:46:53.326Z,48.40
2024-03-13T09:49:22.383Z,49.40
2024-03-13T09:51:50.037Z,47.00
2024-03-13T09:54:17.649Z,34.80
2024-03-13T09:56:45.291Z,56.20
2024-03-13T09:59:12.785Z,54.10
2024-03-13T10:01:40.347Z,35.00
2024-03-13T10:04:07.898Z,36.00
2024-03-13T10:06:35.487Z,51.20
2024-03-13T10:09:03.012Z,47.70
2024-03-13T10:11:30.711Z,39.00
2024-03-13T10:13:58.278Z,41.50
2024-03-13T10:16:25.775Z,42.60
2024-03-13T10:18:53.662Z,37.70
2024-03-13T10:21:21.277Z,41.10
2024-03-13T10:23:49.013Z,44.50
2024-03-13T10:26:16.571Z,43.70
2024-03-13T10:28:44.074Z,33.10
2024-03-13T10:31:11.586Z,33.00
2024-03-13T10:33:39.270Z,40.70
2024-03-13T10:36:06.860Z,31.40
2024-03-13T10:38:35.149Z,37.30
2024-03-13T10:41:02.895Z,38.50
2024-03-13T10:43:30.501Z,38.10
2024-03-13T10:45:58.028Z,41.10
2024-03-13T10:48:25.690Z,41.20
2024-03-13T10:50:53.438Z,30.40
2024-03-13T10:53:20.999Z,38.30
2024-03-13T10:55:48.562Z,34.20
2024-03-13T10:58:16.155Z,45.50
2024-03-13T11:00:43.705Z,44.10
2024-03-13T11:03:11.228Z,39.80
2024-03-13T11:05:39.082Z,35.90
2024-03-13T11:08:06.870Z,35.80
2024-03-13T11:10:34.410Z,32.50
2024-03-13T11:13:02.040Z,35.90
2024-03-13T11:15:29.578Z,61.70
2024-03-13T11:17:58.077Z,43.10
2024-03-13T11:20:26.315Z,41.60
2024-03-13T11:22:53.843Z,43.30
2024-03-13T11:25:21.417Z,48.00
2024-03-13T11:27:49.024Z,36.10
2024-03-13T11:30:16.612Z,35.90
2024-03-13T11:32:44.319Z,35.50
2024-03-13T11:35:11.917Z,37.90
2024-03-13T11:37:39.472Z,35.40
2024-03-13T11:40:07.038Z,30.00
2024-03-13T11:42:34.581Z,28.20
2024-03-13T11:45:02.163Z,31.60
2024-03-13T11:47:29.682Z,45.80
2024-03-13T11:49:57.259Z,36.30
2024-03-13T11:52:24.749Z,36.20
2024-03-13T11:54:52.277Z,31.40
2024-03-13T11:57:20.022Z,36.10
2024-03-13T11:59:48.022Z,35.40
2024-03-13T12:02:15.534Z,32.10
2024-03-13T12:04:43.101Z,33.70
2024-03-13T12:07:10.648Z,23.80
2024-03-13T12:09:38.180Z,32.90
2024-03-13T12:12:05.873Z,38.20
2024-03-13T12:14:33.536Z,33.60
2024-03-13T12:17:01.405Z,25.20
2024-03-13T12:19:29.163Z,25.80
2024-03-13T12:21:56.851Z,27.10
2024-03-13T12:24:24.462Z,23.60
2024-03-13T12:26:52.016Z,27.20
2024-03-13T12:29:19.575Z,34.50
2024-03-13T12:31:47.108Z,24.90
2024-03-13T12:34:14.595Z,26.90
2024-03-13T12:36:42.170Z,29.90
2024-03-13T12:39:09.775Z,31.40
2024-03-13T12:41:37.534Z,30.30
2024-03-13T12:44:05.126Z,30.50
2024-03-13T12:46:32.619Z,26.80
2024-03-13T12:49:00.218Z,27.50
2024-03-13T12:51:27.892Z,26.60
2024-03-13T12:53:55.474Z,24.40
2024-03-13T12:56:23.025Z,22.30
2024-03-13T12:58:50.552Z,24.80
2024-03-13T13:01:18.085Z,33.70
2024-03-13T13:03:45.602Z,25.70
2024-03-13T13:06:13.386Z,27.40
2024-03-13T13:08:41.048Z,26.50
2024-03-13T13:11:08.767Z,32.10
2024-03-13T13:13:36.352Z,38.90
2024-03-13T13:28:45.535Z,25.80
2024-03-13T13:31:13.060Z,27.30
2024-03-13T13:33:40.673Z,33.60
2024-03-13T13:36:08.373Z,26.50
2024-03-13T13:38:36.528Z,22.80
2024-03-13T13:41:04.434Z,27.40
2024-03-13T13:43:32.023Z,26.70
2024-03-13T13:45:59.550Z,24.60
2024-03-13T13:48:27.222Z,30.00
2024-03-13T13:50:54.819Z,26.00
2024-03-13T13:53:22.369Z,26.70
2024-03-13T13:55:49.936Z,25.60
2024-03-13T13:58:17.520Z,29.40
2024-03-13T14:00:45.011Z,25.20
2024-03-13T14:03:12.716Z,30.70
2024-03-13T14:05:42.840Z,30.90
2024-03-13T14:08:11.949Z,24.30
2024-03-13T14:10:39.533Z,22.10
2024-03-13T14:13:07.083Z,23.90
2024-03-13T14:15:34.650Z,24.90
2024-03-13T14:18:02.309Z,25.00
2024-03-13T14:20:29.873Z,25.50
2024-03-13T14:22:57.473Z,24.80
2024-03-13T14:25:25.191Z,22.40
2024-03-13T14:27:52.750Z,27.40
2024-03-13T14:30:20.566Z,27.30
2024-03-13T14:32:48.725Z,24.00
2024-03-13T14:35:16.759Z,28.30
2024-03-13T14:37:44.647Z,24.50
2024-03-13T14:40:12.429Z,21.30
2024-03-13T14:42:40.325Z,17.70
2024-03-13T14:45:08.360Z,14.00
2024-03-13T14:47:36.078Z,18.30
2024-03-13T14:50:03.722Z,19.30
2024-03-13T14:52:31.309Z,12.60
2024-03-13T14:54:58.808Z,14.70
2024-03-13T14:57:26.399Z,15.70
2024-03-13T14:59:54.007Z,19.60
2024-03-13T15:02:21.673Z,14.80
2024-03-13T15:04:49.215Z,18.80
2024-03-13T15:07:16.924Z,18.90
2024-03-13T15:09:44.443Z,22.70
2024-03-13T15:12:15.349Z,17.40
2024-03-13T15:14:44.912Z,19.10
2024-03-13T15:17:13.127Z,17.50
2024-03-13T15:19:40.778Z,25.40
2024-03-13T15:22:08.457Z,16.60
2024-03-13T15:24:35.942Z,19.70
2024-03-13T15:27:03.469Z,21.00
2024-03-13T15:29:31.140Z,18.80
2024-03-13T15:31:59.024Z,21.30
2024-03-13T15:34:26.595Z,20.80
2024-03-13T15:36:54.208Z,20.70
2024-03-13T15:39:21.788Z,23.00
2024-03-13T15:41:49.584Z,26.50
2024-03-13T15:44:17.186Z,20.50
2024-03-13T15:46:44.776Z,21.20
2024-03-13T15:49:12.912Z,26.00
2024-03-13T15:51:40.664Z,18.00
2024-03-13T15:54:08.389Z,22.80
2024-03-13T15:56:38.404Z,22.40
2024-03-13T15:59:05.964Z,24.00
2024-03-13T16:01:33.551Z,20.70
2024-03-13T16:04:01.158Z,26.90
2024-03-13T16:06:28.828Z,19.80
2024-03-13T16:08:56.502Z,24.40
2024-03-13T16:11:24.092Z,22.70
2024-03-13T16:13:51.628Z,24.00
2024-03-13T16:16:19.202Z,22.90
2024-03-13T16:18:46.757Z,24.10
2024-03-13T16:21:14.449Z,21.40
2024-03-13T16:23:42.488Z,27.60
2024-03-13T16:26:10.145Z,35.80
2024-03-13T16:28:37.782Z,35.40
2024-03-13T16:31:05.710Z,25.20
2024-03-13T16:33:33.372Z,33.90
2024-03-13T16:36:01.423Z,34.80
2024-03-13T16:38:29.360Z,30.80
2024-03-13T16:40:56.871Z,26.10
2024-03-13T16:43:24.422Z,27.10
2024-03-13T16:45:51.970Z,28.60
2024-03-13T16:48:19.527Z,32.10
2024-03-13T16:50:48.216Z,31.50
2024-03-13T16:53:16.476Z,44.20
2024-03-13T16:55:46.988Z,437.90
2024-03-13T16:58:16.529Z,172.40
2024-03-13T17:00:44.373Z,83.00
2024-03-13T17:03:13.624Z,67.30
2024-03-13T17:05:41.339Z,59.50
2024-03-13T17:08:09.024Z,46.40
2024-03-13T17:10:36.610Z,41.50
2024-03-13T17:13:04.166Z,46.20
2024-03-13T17:15:32.037Z,33.80
2024-03-13T17:17:59.756Z,64.20
2024-03-13T17:20:27.780Z,55.90
2024-03-13T17:22:55.338Z,92.70
2024-03-13T17:25:22.927Z,46.00
2024-03-13T17:27:50.479Z,86.30
2024-03-13T17:30:18.004Z,88.40
2024-03-13T17:32:45.920Z,75.70
2024-03-13T17:35:13.494Z,51.10
2024-03-13T17:37:41.052Z,44.50
2024-03-13T17:40:08.853Z,49.30
2024-03-13T17:42:36.926Z,52.20
2024-03-13T17:45:04.595Z,49.40
2024-03-13T17:47:32.399Z,45.90
2024-03-13T17:49:59.909Z,48.10
2024-03-13T17:52:27.475Z,43.90
2024-03-13T17:54:55.313Z,44.40
2024-03-13T17:57:22.969Z,38.50
2024-03-13T17:59:51.198Z,36.70
2024-03-13T18:02:18.775Z,41.50
2024-03-13T18:04:46.326Z,34.90
2024-03-13T18:07:13.892Z,40.70
2024-03-13T18:09:41.775Z,50.80
2024-03-13T18:12:09.472Z,49.50
2024-03-13T18:14:37.120Z,42.50
2024-03-13T18:17:04.624Z,47.70
2024-03-13T18:19:32.326Z,46.20
2024-03-13T18:21:59.870Z,52.50
2024-03-13T18:24:27.478Z,58.50
2024-03-13T18:26:55.117Z,60.50
2024-03-13T18:29:22.755Z,49.40
2024-03-13T18:31:50.293Z,45.40
2024-03-13T18:34:17.955Z,41.30
2024-03-13T18:36:45.576Z,36.40
2024-03-13T18:39:13.242Z,29.50
2024-03-13T18:41:40.838Z,26.70
2024-03-13T18:44:08.440Z,28.60
2024-03-13T18:46:36.042Z,38.10
2024-03-13T18:49:03.711Z,38.50
2024-03-13T18:51:31.616Z,98.10
2024-03-13T18:53:59.557Z,81.50
2024-03-13T18:56:27.109Z,73.90
2024-03-13T18:58:55.082Z,66.60
2024-03-13T19:01:23.815Z,72.70
2024-03-13T19:03:51.491Z,77.20
2024-03-13T19:06:19.081Z,75.60
2024-03-13T19:08:46.661Z,68.70
2024-03-13T19:11:15.907Z,73.90
2024-03-13T19:13:43.498Z,76.70
2024-03-13T19:16:11.055Z,70.60
2024-03-13T19:18:38.840Z,44.10
2024-03-13T19:21:06.417Z,42.00
2024-03-13T19:23:34.421Z,49.00
2024-03-13T19:26:02.144Z,42.30
2024-03-13T19:28:30.009Z,40.50
2024-03-13T19:30:57.562Z,44.00
2024-03-13T19:33:25.135Z,57.00
2024-03-13T19:35:52.760Z,47.70
2024-03-13T19:38:20.296Z,87.80
2024-03-13T19:40:47.801Z,68.30
2024-03-13T19:43:15.552Z,70.50
2024-03-13T19:45:43.013Z,69.90
2024-03-13T19:48:10.576Z,50.80
2024-03-13T19:50:38.202Z,82.00
2024-03-13T19:53:05.759Z,119.40
2024-03-13T19:55:33.413Z,79.50
2024-03-13T19:58:01.009Z,53.20
2024-03-13T20:00:28.994Z,59.40
2024-03-13T20:02:56.766Z,62.50
2024-03-13T20:05:24.453Z,72.70
2024-03-13T20:07:51.962Z,88.60
2024-03-13T20:10:19.580Z,80.80
2024-03-13T20:12:47.214Z,98.40
2024-03-13T20:15:14.854Z,90.40
2024-03-13T20:17:42.603Z,77.30
2024-03-13T20:20:10.182Z,79.00
2024-03-13T20:22:37.659Z,83.40
2024-03-13T20:25:05.244Z,82.10
2024-03-13T20:27:33.181Z,93.70
2024-03-13T20:30:00.770Z,104.80
2024-03-13T20:32:28.585Z,95.80
2024-03-13T20:34:56.118Z,79.60
2024-03-13T20:37:23.621Z,83.60
2024-03-13T20:39:51.244Z,77.40
2024-03-13T20:42:18.833Z,88.30
2024-03-13T20:44:46.554Z,86.50
2024-03-13T20:47:14.042Z,77.50
2024-03-13T20:49:41.601Z,76.40
2024-03-13T20:52:09.152Z,75.30
2024-03-13T20:54:36.625Z,83.70
2024-03-13T20:57:04.494Z,97.50
2024-03-13T20:59:32.017Z,133.10
2024-03-13T21:01:59.509Z,119.80
2024-03-13T21:04:27.028Z,149.50
2024-03-13T21:06:54.661Z,172.70
2024-03-13T21:09:22.213Z,165.60
2024-03-13T21:11:53.250Z,168.20
2024-03-13T21:14:22.564Z,222.40
2024-03-13T21:16:50.168Z,181.20
2024-03-13T21:19:17.858Z,183.70
2024-03-13T21:21:45.398Z,172.10
2024-03-13T21:24:13.003Z,207.00
2024-03-13T21:26:40.678Z,164.40
2024-03-13T21:29:08.185Z,131.70
2024-03-13T21:31:35.800Z,126.60
2024-03-13T21:34:03.687Z,108.00
2024-03-13T21:36:31.342Z,105.40
2024-03-13T21:38:59.076Z,82.30
2024-03-13T21:41:26.681Z,88.90
2024-03-13T21:43:54.188Z,84.90
2024-03-13T21:46:21.991Z,77.90
2024-03-13T21:48:49.618Z,94.60
2024-03-13T21:51:17.312Z,93.90
2024-03-13T21:53:44.989Z,79.40
2024-03-13T21:56:12.531Z,74.20
2024-03-13T21:58:40.026Z,92.90
2024-03-13T22:01:07.573Z,91.90
2024-03-13T22:03:35.169Z,83.20
2024-03-13T22:06:02.853Z,94.30
2024-03-13T22:08:30.380Z,78.90
2024-03-13T22:10:57.939Z,80.20
2024-03-13T22:13:25.473Z,84.00
2024-03-13T22:15:52.958Z,77.50
2024-03-13T22:18:20.598Z,68.80
2024-03-13T22:20:48.203Z,71.10
2024-03-13T22:23:16.192Z,74.60
2024-03-13T22:25:43.731Z,89.00
2024-03-13T22:28:11.246Z,80.60
2024-03-13T22:30:38.797Z,86.90
2024-03-13T22:33:06.510Z,84.00
2024-03-13T22:35:34.120Z,83.60
2024-03-13T22:38:01.643Z,95.80
2024-03-13T22:40:29.250Z,97.30
2024-03-13T22:42:56.770Z,101.70
2024-03-13T22:45:24.374Z,99.90
2024-03-13T22:47:51.980Z,92.30
2024-03-13T22:50:19.965Z,121.80
2024-03-13T22:52:47.742Z,97.90
2024-03-13T22:55:15.311Z,89.10
2024-03-13T22:57:42.826Z,87.80
2024-03-13T23:00:10.396Z,103.50
2024-03-13T23:02:37.968Z,97.70
2024-03-13T23:05:05.465Z,93.60
2024-03-13T23:07:33.025Z,89.50
2024-03-13T23:10:00.732Z,99.30
2024-03-13T23:12:28.355Z,78.30
2024-03-13T23:14:56.012Z,84.70
2024-03-13T23:17:23.513Z,103.70
2024-03-13T23:19:51.042Z,97.80
2024-03-13T23:22:18.615Z,93.00
2024-03-13T23:24:46.199Z,106.50
2024-03-13T23:27:13.785Z,98.50
2024-03-13T23:29:41.353Z,99.10
2024-03-13T23:32:08.910Z,92.50
2024-03-13T23:34:36.385Z,101.40
2024-03-13T23:37:03.942Z,78.80
2024-03-13T23:39:31.537Z,74.20
2024-03-13T23:41:59.434Z,71.30
2024-03-13T23:44:27.215Z,72.10
2024-03-13T23:46:54.730Z,79.20
2024-03-13T23:49:22.232Z,95.10
2024-03-13T23:51:49.738Z,79.20
2024-03-13T23:54:17.468Z,74.10
2024-03-13T23:56:45.250Z,73.10
2024-03-13T23:59:12.740Z,68.10
